Terminal Aerodrome Forecast
Issued by NWS Cleveland, OH

Home | Current Version | Previous Version | Text Only | Print | Product List | Glossary On
Versions: 1 2 3 4 5 6 7 8 9 10 11 12 13 14
524
FTUS41 KCLE 101135
TAFTOL
TAF
KTOL 101135Z 1012/1112 25010KT P6SM BKN100
     FM101500 25012G20KT P6SM BKN070
     FM102200 24010KT P6SM OVC035
     FM110400 24005KT 3SM -SN OVC025
     FM110600 22005KT 1SM -SN OVC015=

USA.gov is the U.S. government's official web portal to all federal, state and local government web resources and services.